createdAt,value
2019-01-11T00:01:15.659Z,2.50
2019-01-11T00:04:03.160Z,2.59
2019-01-11T00:06:31.535Z,2.74
2019-01-11T00:08:59.918Z,2.77
2019-01-11T00:11:47.639Z,2.83
2019-01-11T00:14:35.307Z,2.68
2019-01-11T00:17:03.691Z,2.64
2019-01-11T00:19:51.188Z,2.59
2019-01-11T00:22:38.694Z,2.46
2019-01-11T00:25:46.981Z,2.45
2019-01-11T00:28:34.483Z,2.56
2019-01-11T00:31:43.013Z,2.50
2019-01-11T00:34:11.402Z,2.60
2019-01-11T00:36:39.784Z,2.35
2019-01-11T00:39:48.093Z,2.54
2019-01-11T00:42:16.474Z,2.62
2019-01-11T00:44:44.866Z,2.65
2019-01-11T00:50:47.363Z,2.60
2019-01-11T00:55:50.190Z,2.51
2019-01-11T00:58:37.692Z,2.45
2019-01-11T01:01:25.412Z,2.50
2019-01-11T01:04:13.097Z,2.50
2019-01-11T01:07:00.587Z,2.48
2019-01-11T01:09:28.974Z,2.49
2019-01-11T01:12:16.601Z,2.45
2019-01-11T01:14:45.002Z,2.49
2019-01-11T01:20:20.171Z,2.51
2019-01-11T01:22:48.548Z,2.47
2019-01-11T01:28:11.384Z,2.50
2019-01-11T01:30:39.772Z,2.57
2019-01-11T01:33:27.396Z,2.47
2019-01-11T01:35:55.783Z,2.22
2019-01-11T01:38:43.422Z,2.39
2019-01-11T01:43:59.252Z,2.33
2019-01-11T01:46:27.970Z,2.29
2019-01-11T01:48:56.356Z,2.39
2019-01-11T01:51:43.981Z,2.48
2019-01-11T01:54:12.387Z,2.47
2019-01-11T01:57:00.021Z,2.65
2019-01-11T01:59:28.408Z,2.37
2019-01-11T02:01:57.047Z,2.43
2019-01-11T02:04:44.790Z,2.54
2019-01-11T02:10:19.868Z,2.41
2019-01-11T02:12:48.250Z,2.50
2019-01-11T02:15:16.628Z,2.55
2019-01-11T02:20:32.456Z,2.64
2019-01-11T02:23:00.835Z,2.68
2019-01-11T02:25:29.242Z,2.72
2019-01-11T02:27:57.629Z,2.71
2019-01-11T02:30:26.018Z,2.68
2019-01-11T02:32:54.398Z,2.64
2019-01-11T02:35:22.786Z,2.72
2019-01-11T02:37:51.165Z,2.47
2019-01-11T02:40:19.624Z,2.57
2019-01-11T02:42:48.027Z,2.59
2019-01-11T02:45:18.643Z,2.59
2019-01-11T02:47:47.019Z,2.54
2019-01-11T02:50:15.949Z,2.43
2019-01-11T02:52:44.607Z,2.57
2019-01-11T02:55:13.334Z,2.74
2019-01-11T02:57:41.708Z,2.75
2019-01-11T03:00:18.323Z,2.67
2019-01-11T03:02:46.701Z,2.78
2019-01-11T03:05:15.328Z,2.70
2019-01-11T03:07:44.255Z,2.69
2019-01-11T03:10:17.814Z,2.83
2019-01-11T03:12:46.263Z,3.09
2019-01-11T03:15:16.191Z,3.04
2019-01-11T03:17:44.639Z,2.94
2019-01-11T03:20:14.962Z,3.03
2019-01-11T03:22:43.342Z,2.87
2019-01-11T03:25:13.921Z,2.66
2019-01-11T03:27:42.479Z,2.40
2019-01-11T03:30:18.800Z,2.56
2019-01-11T03:32:47.267Z,2.49
2019-01-11T03:35:16.517Z,2.56
2019-01-11T03:37:46.243Z,2.68
2019-01-11T03:40:17.375Z,2.77
2019-01-11T03:42:45.767Z,2.78
2019-01-11T03:45:16.687Z,2.71
2019-01-11T03:47:45.097Z,2.76
2019-01-11T03:50:15.711Z,2.72
2019-01-11T03:52:44.114Z,2.78
2019-01-11T03:55:14.520Z,2.64
2019-01-11T03:57:43.000Z,2.74
2019-01-11T04:00:14.219Z,2.77
2019-01-11T04:02:42.620Z,2.73
2019-01-11T04:05:11.242Z,2.80
2019-01-11T04:07:39.628Z,2.92
2019-01-11T04:10:11.056Z,2.84
2019-01-11T04:12:39.443Z,2.74
2019-01-11T04:15:10.572Z,2.78
2019-01-11T04:17:38.951Z,2.77
2019-01-11T04:20:10.383Z,2.81
2019-01-11T04:22:39.840Z,2.83
2019-01-11T04:25:09.499Z,3.03
2019-01-11T04:27:37.887Z,3.06
2019-01-11T04:30:09.318Z,3.00
2019-01-11T04:32:37.706Z,3.20
2019-01-11T04:35:06.158Z,3.22
2019-01-11T04:37:34.545Z,3.20
2019-01-11T04:40:03.188Z,3.32
2019-01-11T04:42:31.579Z,3.08
2019-01-11T04:44:59.953Z,3.13
2019-01-11T04:47:28.335Z,3.21
2019-01-11T04:49:56.711Z,3.20
2019-01-11T04:52:25.106Z,2.96
2019-01-11T04:54:53.489Z,3.29
2019-01-11T04:57:21.875Z,3.18
2019-01-11T04:59:50.256Z,2.89
2019-01-11T05:02:18.656Z,3.02
2019-01-11T05:04:47.153Z,2.95
2019-01-11T05:07:15.541Z,3.06
2019-01-11T05:09:43.914Z,2.95
2019-01-11T05:12:12.305Z,3.10
2019-01-11T05:14:40.680Z,3.10
2019-01-11T05:17:09.083Z,3.18
2019-01-11T05:19:37.455Z,3.30
2019-01-11T05:22:05.845Z,3.13
2019-01-11T05:24:34.226Z,3.13
2019-01-11T05:27:02.976Z,3.09
2019-01-11T05:29:31.370Z,3.20
2019-01-11T05:31:59.752Z,3.20
2019-01-11T05:34:28.148Z,3.43
2019-01-11T05:36:56.529Z,3.33
2019-01-11T05:39:24.937Z,3.43
2019-01-11T05:41:53.334Z,3.50
2019-01-11T05:44:21.719Z,3.72
2019-01-11T05:46:50.101Z,3.69
2019-01-11T05:49:18.491Z,3.52
2019-01-11T05:51:46.874Z,3.81
2019-01-11T05:54:15.266Z,3.62
2019-01-11T05:56:43.656Z,3.63
2019-01-11T05:59:12.053Z,3.58
2019-01-11T06:01:40.433Z,3.64
2019-01-11T06:04:10.470Z,3.57
2019-01-11T06:06:56.693Z,3.64
2019-01-11T06:09:25.160Z,3.66
2019-01-11T06:11:53.543Z,3.45
2019-01-11T06:14:21.945Z,3.54
2019-01-11T06:16:50.329Z,3.46
2019-01-11T06:19:18.720Z,3.28
2019-01-11T06:21:47.100Z,3.51
2019-01-11T06:24:18.472Z,3.51
2019-01-11T06:26:47.094Z,3.76
2019-01-11T06:29:15.485Z,3.57
2019-01-11T06:31:43.865Z,3.54
2019-01-11T06:34:12.276Z,3.46
2019-01-11T06:36:40.657Z,3.53
2019-01-11T06:39:09.049Z,3.65
2019-01-11T06:41:39.077Z,3.68
2019-01-11T06:44:07.485Z,3.65
2019-01-11T06:46:36.265Z,3.72
2019-01-11T06:49:05.410Z,3.78
2019-01-11T06:51:34.124Z,3.79
2019-01-11T06:54:02.533Z,3.70
2019-01-11T06:56:30.923Z,3.75
2019-01-11T06:58:59.309Z,3.97
2019-01-11T07:01:27.703Z,3.90
2019-01-11T07:03:56.089Z,3.96
2019-01-11T07:06:24.483Z,3.84
2019-01-11T07:08:52.877Z,3.85
2019-01-11T07:11:21.270Z,4.03
2019-01-11T07:13:49.650Z,4.04
2019-01-11T07:16:18.043Z,4.07
2019-01-11T07:18:46.426Z,4.08
2019-01-11T07:21:14.821Z,3.93
2019-01-11T07:23:43.207Z,4.03
2019-01-11T07:26:11.597Z,4.10
2019-01-11T07:28:39.973Z,4.23
2019-01-11T07:31:09.035Z,4.16
2019-01-11T07:33:37.658Z,4.21
2019-01-11T07:36:07.858Z,4.39
2019-01-11T07:38:36.310Z,4.39
2019-01-11T07:41:04.701Z,4.18
2019-01-11T07:43:33.089Z,4.19
2019-01-11T07:46:02.049Z,4.23
2019-01-11T07:48:30.428Z,4.18
2019-01-11T07:50:58.821Z,4.26
2019-01-11T07:53:27.210Z,4.30
2019-01-11T07:55:55.764Z,4.36
2019-01-11T07:58:24.145Z,4.45
2019-01-11T08:00:52.538Z,4.47
2019-01-11T08:03:21.009Z,4.65
2019-01-11T08:05:49.497Z,4.62
2019-01-11T08:08:17.888Z,4.59
2019-01-11T08:10:46.281Z,4.75
2019-01-11T08:13:14.667Z,4.57
2019-01-11T08:15:43.057Z,4.75
2019-01-11T08:18:11.437Z,4.83
2019-01-11T08:20:39.827Z,4.75
2019-01-11T08:23:08.208Z,4.75
2019-01-11T08:25:36.594Z,4.75
2019-01-11T08:28:24.302Z,4.79
2019-01-11T08:31:12.029Z,4.64
2019-01-11T08:33:59.528Z,4.77
2019-01-11T08:36:27.931Z,4.85
2019-01-11T08:41:45.379Z,4.74
2019-01-11T08:44:13.760Z,4.69
2019-01-11T08:46:42.157Z,4.77
2019-01-11T08:49:29.878Z,4.75
2019-01-11T08:51:58.268Z,4.72
2019-01-11T08:54:26.659Z,4.65
2019-01-11T08:56:55.053Z,4.52
2019-01-11T08:59:42.544Z,4.64
2019-01-11T09:02:30.274Z,4.86
2019-01-11T09:04:58.650Z,4.86
2019-01-11T09:07:27.045Z,4.70
2019-01-11T09:09:55.418Z,4.86
2019-01-11T09:12:23.808Z,4.91
2019-01-11T09:15:11.501Z,4.93
2019-01-11T09:17:59.007Z,5.12
2019-01-11T09:20:46.498Z,5.14
2019-01-11T09:23:14.896Z,5.34
2019-01-11T09:25:43.282Z,5.39
2019-01-11T09:28:30.920Z,5.38
2019-01-11T09:30:59.301Z,5.34
2019-01-11T09:33:27.693Z,5.35
2019-01-11T09:35:56.076Z,5.41
2019-01-11T09:38:43.582Z,5.58
2019-01-11T09:44:18.821Z,5.47
2019-01-11T09:47:06.685Z,5.46
2019-01-11T09:49:35.077Z,5.33
2019-01-11T09:54:57.607Z,5.47
2019-01-11T09:57:26.025Z,5.61
2019-01-11T09:59:54.529Z,5.58
2019-01-11T10:05:15.612Z,5.69
2019-01-11T10:10:37.152Z,5.92
2019-01-11T10:13:24.790Z,5.84
2019-01-11T10:16:12.653Z,5.98
2019-01-11T10:19:00.157Z,6.09
2019-01-11T10:21:28.540Z,6.17
2019-01-11T10:26:30.591Z,6.20
2019-01-11T10:29:18.229Z,6.31
2019-01-11T10:34:53.181Z,6.41
2019-01-11T10:37:21.558Z,6.39
2019-01-11T10:39:49.949Z,6.48
2019-01-11T10:42:18.324Z,6.59
2019-01-11T10:44:46.705Z,6.63
2019-01-11T10:47:15.082Z,6.69
2019-01-11T10:50:02.716Z,6.71
2019-01-11T10:52:31.098Z,6.78
2019-01-11T10:55:18.602Z,6.83
2019-01-11T10:58:26.909Z,6.90
2019-01-11T11:01:14.543Z,6.77
2019-01-11T11:04:02.047Z,6.76
2019-01-11T11:09:17.908Z,6.81
2019-01-11T11:12:05.512Z,6.72
2019-01-11T11:17:07.829Z,6.82
2019-01-11T11:19:36.210Z,6.82
2019-01-11T11:24:52.030Z,6.81
2019-01-11T11:27:39.553Z,6.77
2019-01-11T11:30:51.037Z,6.85
2019-01-11T11:36:45.301Z,6.88
2019-01-11T11:39:13.742Z,6.99
2019-01-11T11:42:01.418Z,7.11
2019-01-11T11:44:29.823Z,7.13
2019-01-11T11:47:17.452Z,7.18
2019-01-11T11:49:45.840Z,7.28
2019-01-11T11:52:54.127Z,7.26
2019-01-11T11:55:22.514Z,7.42
2019-01-11T12:00:58.960Z,7.36
2019-01-11T12:04:07.256Z,7.54
2019-01-11T12:06:35.636Z,7.59
2019-01-11T12:09:44.191Z,7.88
2019-01-11T12:12:12.561Z,7.92
2019-01-11T12:14:40.933Z,7.99
2019-01-11T12:17:28.431Z,7.90
2019-01-11T12:19:57.200Z,8.00
2019-01-11T12:22:26.924Z,7.98
2019-01-11T12:25:14.787Z,7.78
2019-01-11T12:27:43.164Z,7.93
2019-01-11T12:30:51.478Z,7.91
2019-01-11T12:33:38.962Z,8.08
2019-01-11T12:36:26.589Z,8.02
2019-01-11T12:38:54.961Z,8.12
2019-01-11T12:41:42.594Z,8.09
2019-01-11T12:44:10.963Z,8.19
2019-01-11T12:46:58.463Z,8.13
2019-01-11T12:52:14.285Z,8.30
2019-01-11T12:55:01.917Z,8.40
2019-01-11T12:57:49.544Z,8.44
2019-01-11T13:00:57.839Z,8.23
2019-01-11T13:03:26.226Z,8.40
2019-01-11T13:06:13.867Z,8.56
2019-01-11T13:08:42.232Z,8.59
2019-01-11T13:11:29.955Z,8.56
2019-01-11T13:14:17.576Z,8.52
2019-01-11T13:16:45.971Z,8.52
2019-01-11T13:22:01.786Z,8.39
2019-01-11T13:27:17.601Z,8.31
2019-01-11T13:35:47.151Z,8.49
2019-01-11T13:38:34.803Z,8.38
2019-01-11T13:43:57.416Z,7.78
2019-01-11T13:46:25.796Z,7.82
2019-01-11T13:51:41.629Z,7.94
2019-01-11T13:54:29.118Z,8.06
2019-01-11T13:56:57.508Z,8.02
2019-01-11T13:59:45.136Z,7.98
2019-01-11T14:02:13.520Z,7.97
2019-01-11T14:05:20.261Z,7.88
2019-01-11T14:07:48.645Z,7.85
2019-01-11T14:13:23.574Z,7.91
2019-01-11T14:16:11.193Z,7.91
2019-01-11T14:18:39.575Z,7.85
2019-01-11T14:21:27.135Z,7.94
2019-01-11T14:24:14.762Z,7.96
2019-01-11T14:26:50.577Z,7.97
2019-01-11T14:29:38.202Z,7.84
2019-01-11T14:32:25.934Z,7.77
2019-01-11T14:34:54.300Z,7.79
2019-01-11T14:37:22.675Z,7.74
2019-01-11T14:42:25.045Z,7.77
2019-01-11T14:44:53.428Z,7.71
2019-01-11T14:47:41.053Z,7.75
2019-01-11T14:50:49.351Z,7.79
2019-01-11T14:53:17.735Z,7.82
2019-01-11T14:55:46.105Z,7.68
2019-01-11T14:58:14.489Z,7.81
2019-01-11T15:00:42.866Z,7.56
2019-01-11T15:03:30.594Z,7.66
2019-01-11T15:05:58.970Z,7.67
2019-01-11T15:08:27.391Z,7.51
2019-01-11T15:10:55.764Z,7.55
2019-01-11T15:15:58.148Z,7.47
2019-01-11T15:18:26.533Z,7.53
2019-01-11T15:20:54.922Z,7.45
2019-01-11T15:23:42.542Z,7.54
2019-01-11T15:26:10.930Z,7.51
2019-01-11T15:28:58.559Z,7.48
2019-01-11T15:31:26.979Z,7.35
2019-01-11T15:34:14.602Z,7.44
2019-01-11T15:39:30.418Z,7.51
2019-01-11T15:41:58.790Z,7.50
2019-01-11T15:44:27.180Z,7.45
2019-01-11T15:46:55.541Z,7.49
2019-01-11T15:49:23.940Z,7.55
2019-01-11T15:51:52.316Z,7.44
2019-01-11T15:59:48.412Z,7.64
2019-01-11T16:02:16.789Z,7.71
2019-01-11T16:04:45.197Z,7.60
2019-01-11T16:10:01.015Z,7.79
2019-01-11T16:13:09.303Z,7.80
2019-01-11T16:16:17.685Z,7.53
2019-01-11T16:19:05.307Z,7.55
2019-01-11T16:21:53.033Z,7.53
2019-01-11T16:24:21.423Z,7.54
2019-01-11T16:27:09.050Z,7.65
2019-01-11T16:29:56.785Z,7.65
2019-01-11T16:32:44.410Z,7.55
2019-01-11T16:35:12.793Z,7.49
2019-01-11T16:38:00.419Z,7.49
2019-01-11T16:40:28.814Z,7.45
2019-01-11T16:43:37.129Z,7.56
2019-01-11T16:46:24.776Z,7.44
2019-01-11T16:48:53.153Z,7.31
2019-01-11T16:51:21.583Z,7.38
2019-01-11T16:53:49.914Z,7.39
2019-01-11T16:56:37.547Z,7.46
2019-01-11T16:59:25.250Z,7.53
2019-01-11T17:01:53.629Z,7.47
2019-01-11T17:09:43.073Z,7.31
2019-01-11T17:12:30.701Z,7.24
2019-01-11T17:15:18.198Z,7.16
2019-01-11T17:18:05.686Z,7.14
2019-01-11T17:20:34.074Z,7.15
2019-01-11T17:25:49.902Z,7.11
2019-01-11T17:28:18.278Z,7.14
2019-01-11T17:30:46.663Z,6.96
2019-01-11T17:33:15.044Z,7.11
2019-01-11T17:36:02.674Z,7.09
2019-01-11T17:38:50.162Z,7.01
2019-01-11T17:41:18.548Z,6.93
2019-01-11T17:43:46.922Z,6.96
2019-01-11T17:46:34.424Z,7.04
2019-01-11T17:52:29.986Z,7.08
2019-01-11T17:55:17.478Z,7.10
2019-01-11T17:57:45.859Z,7.06
2019-01-11T18:00:33.578Z,7.10
2019-01-11T18:03:01.961Z,7.07
2019-01-11T18:05:30.334Z,7.05
2019-01-11T18:08:17.968Z,7.05
2019-01-11T18:11:05.492Z,7.09
2019-01-11T18:13:33.868Z,7.08
2019-01-11T18:16:21.555Z,7.20
2019-01-11T18:18:49.906Z,7.29
2019-01-11T18:21:37.635Z,7.09
2019-01-11T18:24:25.269Z,7.13
2019-01-11T18:27:12.769Z,7.10
2019-01-11T18:30:00.388Z,6.97
2019-01-11T18:40:32.768Z,6.97
2019-01-11T18:45:35.062Z,6.78
2019-01-11T18:50:37.446Z,6.87
2019-01-11T18:53:05.830Z,6.98
2019-01-11T18:55:34.211Z,7.00
2019-01-11T18:58:02.591Z,7.04
2019-01-11T19:00:30.962Z,7.03
2019-01-11T19:02:59.351Z,7.08
2019-01-11T19:05:27.766Z,7.03
2019-01-11T19:07:56.146Z,7.15
2019-01-11T19:10:24.626Z,7.01
2019-01-11T19:12:53.016Z,6.94
2019-01-11T19:15:26.649Z,6.79
2019-01-11T19:17:55.027Z,6.84
2019-01-11T19:20:25.644Z,6.98
2019-01-11T19:22:54.201Z,7.03
2019-01-11T19:25:22.739Z,7.02
2019-01-11T19:27:51.194Z,7.10
2019-01-11T19:30:21.710Z,7.03
2019-01-11T19:32:50.178Z,6.90
2019-01-11T19:35:18.555Z,6.79
2019-01-11T19:37:46.934Z,6.79
2019-01-11T19:40:16.453Z,6.89
2019-01-11T19:42:44.844Z,6.96
2019-01-11T19:45:15.070Z,6.94
2019-01-11T19:47:43.440Z,7.02
2019-01-11T19:50:14.362Z,7.00
2019-01-11T19:52:43.225Z,6.94
2019-01-11T19:55:12.168Z,6.96
2019-01-11T19:57:40.535Z,7.10
2019-01-11T20:00:17.788Z,7.06
2019-01-11T20:02:46.605Z,6.96
2019-01-11T20:05:15.922Z,6.97
2019-01-11T20:07:44.468Z,7.03
2019-01-11T20:10:15.945Z,7.10
2019-01-11T20:12:44.317Z,7.00
2019-01-11T20:15:13.120Z,6.99
2019-01-11T20:17:41.492Z,6.99
2019-01-11T20:20:12.611Z,6.94
2019-01-11T20:22:40.986Z,7.06
2019-01-11T20:25:15.028Z,7.01
2019-01-11T20:27:43.472Z,6.91
2019-01-11T20:30:17.754Z,6.92
2019-01-11T20:32:46.180Z,6.75
2019-01-11T20:35:14.677Z,6.82
2019-01-11T20:37:43.314Z,6.86
2019-01-11T20:40:14.139Z,6.86
2019-01-11T20:42:42.572Z,6.90
2019-01-11T20:45:13.638Z,6.90
2019-01-11T20:47:42.011Z,6.84
2019-01-11T20:50:13.140Z,6.99
2019-01-11T20:52:41.522Z,6.84
2019-01-11T20:55:10.871Z,6.89
2019-01-11T20:57:39.487Z,7.02
2019-01-11T21:00:11.338Z,7.15
2019-01-11T21:02:39.716Z,7.14
2019-01-11T21:05:08.534Z,7.12
2019-01-11T21:07:36.906Z,7.08
2019-01-11T21:10:08.227Z,7.10
2019-01-11T21:12:36.602Z,7.09
2019-01-11T21:15:11.119Z,7.25
2019-01-11T21:17:39.500Z,7.20
2019-01-11T21:20:10.924Z,7.30
2019-01-11T21:22:39.367Z,7.26
2019-01-11T21:25:10.792Z,7.25
2019-01-11T21:27:39.166Z,7.16
2019-01-11T21:30:16.376Z,7.21
2019-01-11T21:32:44.752Z,7.11
2019-01-11T21:35:13.405Z,7.16
2019-01-11T21:37:41.780Z,7.25
2019-01-11T21:40:13.006Z,7.31
2019-01-11T21:42:41.382Z,7.41
2019-01-11T21:45:11.219Z,7.25
2019-01-11T21:47:39.728Z,7.21
2019-01-11T21:50:17.360Z,7.32
2019-01-11T21:52:45.800Z,7.40
2019-01-11T21:55:14.921Z,7.40
2019-01-11T21:57:44.244Z,7.35
2019-01-11T22:00:19.086Z,7.51
2019-01-11T22:02:47.477Z,7.38
2019-01-11T22:05:16.014Z,7.43
2019-01-11T22:07:44.393Z,7.33
2019-01-11T22:10:15.111Z,7.42
2019-01-11T22:12:43.490Z,7.37
2019-01-11T22:15:14.984Z,7.32
2019-01-11T22:17:43.367Z,7.48
2019-01-11T22:20:14.405Z,7.37
2019-01-11T22:22:42.766Z,7.53
2019-01-11T22:25:12.877Z,7.29
2019-01-11T22:27:41.265Z,7.26
2019-01-11T22:30:12.650Z,7.15
2019-01-11T22:32:41.037Z,7.35
2019-01-11T22:35:09.408Z,7.37
2019-01-11T22:37:37.791Z,7.17
2019-01-11T22:40:09.219Z,7.33
2019-01-11T22:42:37.603Z,7.25
2019-01-11T22:45:09.283Z,7.25
2019-01-11T22:47:37.688Z,7.21
2019-01-11T22:50:08.703Z,7.34
2019-01-11T22:52:37.090Z,7.15
2019-01-11T22:55:07.705Z,7.29
2019-01-11T22:57:36.086Z,7.09
2019-01-11T23:00:07.544Z,7.26
2019-01-11T23:02:35.929Z,7.19
2019-01-11T23:05:06.340Z,7.27
2019-01-11T23:07:34.723Z,7.19
2019-01-11T23:10:04.978Z,7.02
2019-01-11T23:12:39.258Z,7.03
2019-01-11T23:15:10.696Z,7.10
2019-01-11T23:17:42.131Z,7.11
2019-01-11T23:20:12.951Z,7.13
2019-01-11T23:22:41.336Z,7.28
2019-01-11T23:25:09.801Z,7.27
2019-01-11T23:27:38.193Z,7.30
2019-01-11T23:30:09.705Z,7.41
2019-01-11T23:32:38.086Z,7.32
2019-01-11T23:35:06.630Z,7.22
2019-01-11T23:37:35.015Z,7.18
2019-01-11T23:40:04.362Z,7.16
2019-01-11T23:42:32.742Z,7.16
2019-01-11T23:45:01.118Z,7.07
2019-01-11T23:47:29.571Z,7.06
2019-01-11T23:49:58.010Z,6.96
2019-01-11T23:52:26.394Z,6.93
2019-01-11T23:54:54.774Z,7.03
2019-01-11T23:57:23.220Z,7.10
2019-01-11T23:59:51.647Z,7.27
